Time;durP1;ratioP1;P1;durP2;ratioP2;P2;SDS_P1;SDS_P2;PMS_P1;PMS_P2;Temp;Humidity;BMP_temperature;BMP_pressure;BME280_temperature;BME280_humidity;BME280_pressure;Samples;Min_cycle;Max_cycle;Signal;HPM_P1;HPM_P2
2022/10/11 00:00:21;;;;;;;6.10;0.90;;;;;;;9.17;100.00;101950.50;6273034;28;20049;-78
2022/10/11 00:03:22;;;;;;;1.27;0.60;;;;;;;9.18;100.00;101954.88;6274391;28;20052;-78
2022/10/11 00:06:23;;;;;;;2.50;0.90;;;;;;;9.17;100.00;101958.38;6273595;28;20496;-78
2022/10/11 00:09:25;;;;;;;7.43;1.05;;;;;;;9.12;100.00;101963.75;6274926;28;20060;-78
2022/10/11 00:12:26;;;;;;;3.10;0.93;;;;;;;9.14;100.00;101961.97;6275481;28;20045;-79
2022/10/11 00:15:30;;;;;;;2.42;0.70;;;;;;;9.05;100.00;101966.63;6275988;28;20504;-79
2022/10/11 00:18:31;;;;;;;4.50;1.00;;;;;;;9.03;100.00;101963.16;6276554;28;20056;-79
2022/10/11 00:21:32;;;;;;;6.88;1.50;;;;;;;9.00;100.00;101971.13;6275913;28;20049;-78
2022/10/11 00:24:34;;;;;;;4.13;0.80;;;;;;;8.96;100.00;101970.34;6275766;28;20052;-79
2022/10/11 00:27:36;;;;;;;10.00;1.25;;;;;;;8.90;100.00;101970.47;6277249;28;20056;-79
2022/10/11 00:30:41;;;;;;;4.90;1.23;;;;;;;8.85;100.00;101973.22;6274971;28;20045;-78
2022/10/11 00:33:43;;;;;;;5.13;1.33;;;;;;;8.80;100.00;101979.50;6274220;28;20049;-79
2022/10/11 00:36:45;;;;;;;6.65;0.85;;;;;;;8.76;100.00;101983.94;6274850;28;20049;-78
2022/10/11 00:39:46;;;;;;;3.95;1.35;;;;;;;8.73;100.00;101991.06;6273381;28;20405;-77
2022/10/11 00:42:48;;;;;;;15.32;1.92;;;;;;;8.69;100.00;101992.03;6274546;28;20045;-79
2022/10/11 00:46:05;;;;;;;4.53;1.00;;;;;;;8.62;100.00;101997.41;6282785;23;20049;-76
2022/10/11 00:49:14;;;;;;;4.15;0.85;;;;;;;8.60;100.00;101999.22;6268469;28;20055;-76
2022/10/11 00:52:22;;;;;;;1.50;0.82;;;;;;;8.56;100.00;101999.34;6269134;28;20045;-76
2022/10/11 00:55:27;;;;;;;5.97;1.25;;;;;;;8.56;100.00;101997.56;6272522;28;20057;-76
2022/10/11 00:58:28;;;;;;;6.45;1.45;;;;;;;8.54;100.00;102008.97;6272838;28;20060;-76
2022/10/11 01:01:31;;;;;;;4.97;1.30;;;;;;;8.52;100.00;102000.31;6272057;28;20060;-76
2022/10/11 01:04:34;;;;;;;3.38;1.08;;;;;;;8.47;100.00;102000.41;6272294;28;20049;-76
2022/10/11 01:07:37;;;;;;;5.25;0.70;;;;;;;8.46;100.00;102016.19;6272810;28;20053;-76
2022/10/11 01:10:39;;;;;;;7.40;0.80;;;;;;;8.41;100.00;102016.28;6271973;28;20060;-76
2022/10/11 01:13:50;;;;;;;6.05;0.88;;;;;;;8.38;100.00;102019.84;6272363;28;20048;-76
2022/10/11 01:17:00;;;;;;;6.80;1.05;;;;;;;8.33;100.00;102020.81;6272445;28;20052;-76
2022/10/11 01:20:23;;;;;;;5.30;1.63;;;;;;;8.33;100.00;102018.19;6266481;28;20045;-76
2022/10/11 01:24:05;;;;;;;4.05;1.15;;;;;;;8.36;100.00;102028.63;6272245;28;20055;-76
2022/10/11 01:27:40;;;;;;;6.25;1.40;;;;;;;8.41;100.00;102026.78;6272294;28;20053;-76
2022/10/11 01:30:43;;;;;;;4.18;0.75;;;;;;;8.42;100.00;102023.25;6271813;28;20053;-76
2022/10/11 01:33:51;;;;;;;5.60;0.98;;;;;;;8.35;100.00;102025.09;6271486;28;20448;-76
2022/10/11 01:37:04;;;;;;;2.80;1.20;;;;;;;8.36;100.00;102023.38;6271792;28;20412;-76
2022/10/11 01:40:09;;;;;;;9.30;1.17;;;;;;;8.38;100.00;102027.69;6271527;28;20088;-76
2022/10/11 01:43:12;;;;;;;3.97;1.27;;;;;;;8.44;100.00;102028.44;6272116;28;20053;-76
2022/10/11 01:46:16;;;;;;;2.80;1.08;;;;;;;8.46;100.00;102031.91;6271093;28;20049;-76
2022/10/11 01:49:18;;;;;;;4.28;1.90;;;;;;;8.44;100.00;102029.28;6272084;28;20060;-76
2022/10/11 01:52:20;;;;;;;2.85;0.98;;;;;;;8.45;100.00;102038.00;6271165;28;20052;-76
2022/10/11 01:55:30;;;;;;;3.78;0.88;;;;;;;8.43;100.00;102035.44;6271169;28;20053;-76
2022/10/11 01:58:42;;;;;;;3.20;1.17;;;;;;;8.37;100.00;102041.69;6271537;28;20056;-76
2022/10/11 02:01:54;;;;;;;2.97;0.80;;;;;;;8.38;100.00;102038.16;6271224;28;20179;-76
2022/10/11 02:05:02;;;;;;;5.72;1.58;;;;;;;8.36;100.00;102039.97;6268661;28;20053;-76
2022/10/11 02:08:10;;;;;;;1.35;0.80;;;;;;;8.33;100.00;102044.38;6271773;28;20060;-76
2022/10/11 02:11:19;;;;;;;5.20;1.45;;;;;;;8.34;100.00;102046.09;6270935;28;20064;-76
2022/10/11 02:14:25;;;;;;;2.87;1.70;;;;;;;8.34;100.00;102057.44;6270845;28;20045;-76
2022/10/11 02:17:34;;;;;;;12.10;1.17;;;;;;;8.31;100.00;102049.66;6271305;28;20075;-76
2022/10/11 02:20:38;;;;;;;6.32;1.30;;;;;;;8.29;100.00;102053.22;6271181;28;20045;-76
2022/10/11 02:23:45;;;;;;;5.30;1.13;;;;;;;8.24;100.00;102047.22;6273277;28;20045;-76
2022/10/11 02:26:51;;;;;;;5.78;0.90;;;;;;;8.22;100.00;102049.00;6276207;28;20045;-76
2022/10/11 02:29:57;;;;;;;2.78;1.33;;;;;;;8.23;100.00;102050.75;6275815;28;20394;-76
2022/10/11 02:33:03;;;;;;;3.38;1.20;;;;;;;8.18;100.00;102056.09;6276158;28;20138;-76
2022/10/11 02:36:10;;;;;;;1.60;0.98;;;;;;;8.11;100.00;102051.88;6275556;28;20493;-76
2022/10/11 02:39:15;;;;;;;9.77;1.30;;;;;;;8.12;100.00;102059.66;6276087;28;20052;-76
2022/10/11 02:42:21;;;;;;;1.83;0.80;;;;;;;8.11;100.00;102057.97;6275249;28;20071;-76
2022/10/11 02:45:27;;;;;;;8.02;1.10;;;;;;;8.08;100.00;102059.78;6275298;28;20511;-76
2022/10/11 02:48:32;;;;;;;6.15;1.27;;;;;;;8.06;100.00;102064.19;6275920;28;20060;-76
2022/10/11 02:51:33;;;;;;;1.02;0.60;;;;;;;8.05;100.00;102067.72;6275353;28;20056;-77
2022/10/11 02:54:35;;;;;;;4.88;1.02;;;;;;;8.02;100.00;102063.41;6275302;28;20056;-76
2022/10/11 02:57:37;;;;;;;5.13;1.20;;;;;;;7.99;100.00;102058.22;6275442;28;20049;-76
2022/10/11 03:00:38;;;;;;;7.43;1.25;;;;;;;8.02;100.00;102065.16;6275420;28;20064;-76
2022/10/11 03:03:41;;;;;;;3.03;1.17;;;;;;;8.02;100.00;102066.00;6275540;28;20052;-76
2022/10/11 03:06:42;;;;;;;9.43;2.10;;;;;;;8.02;100.00;102066.00;6275564;28;20055;-76
2022/10/11 03:09:44;;;;;;;5.05;1.00;;;;;;;8.05;100.00;102071.19;6275036;28;20045;-76
2022/10/11 03:12:46;;;;;;;6.03;1.85;;;;;;;7.95;100.00;102072.28;6275277;28;20692;-76
2022/10/11 03:15:48;;;;;;;6.65;1.40;;;;;;;7.97;100.00;102073.09;6266105;28;20049;-76
2022/10/11 03:18:51;;;;;;;4.60;0.80;;;;;;;7.94;100.00;102077.53;6266179;28;20049;-76
2022/10/11 03:21:53;;;;;;;7.93;1.50;;;;;;;7.86;100.00;102081.19;6271357;28;20045;-76
2022/10/11 03:24:54;;;;;;;3.63;1.73;;;;;;;7.83;100.00;102083.88;6259342;28;20041;-76
2022/10/11 03:27:56;;;;;;;5.97;1.52;;;;;;;7.86;100.00;102091.66;6262387;28;20056;-76
2022/10/11 03:30:57;;;;;;;8.48;1.83;;;;;;;7.91;100.00;102099.41;6259306;28;20050;-76
2022/10/11 03:34:00;;;;;;;12.15;1.55;;;;;;;7.90;100.00;102102.91;6261337;28;20049;-76
2022/10/11 03:37:01;;;;;;;4.97;1.30;;;;;;;7.88;100.00;102094.25;6252398;28;20516;-76
2022/10/11 03:40:04;;;;;;;5.18;1.13;;;;;;;7.84;100.00;102109.13;6249669;28;20132;-76
2022/10/11 03:43:05;;;;;;;7.68;1.35;;;;;;;7.83;100.00;102115.28;6249790;28;20535;-76
2022/10/11 03:46:07;;;;;;;6.45;1.60;;;;;;;7.80;100.00;102111.84;6249426;28;20049;-76
2022/10/11 03:49:09;;;;;;;4.25;1.30;;;;;;;7.80;100.00;102123.16;6249747;28;20049;-76
2022/10/11 03:52:11;;;;;;;4.55;1.15;;;;;;;7.78;100.00;102140.66;6249731;28;20054;-76
2022/10/11 03:55:13;;;;;;;6.72;1.10;;;;;;;7.77;100.00;102130.25;6249214;28;20046;-76
2022/10/11 03:58:14;;;;;;;2.85;1.35;;;;;;;7.77;100.00;102132.84;6249293;28;20421;-76
2022/10/11 04:01:15;;;;;;;4.28;1.30;;;;;;;7.81;100.00;102150.19;6249365;28;20045;-76
2022/10/11 04:04:18;;;;;;;8.90;1.55;;;;;;;7.75;100.00;102148.56;6248776;28;20072;-76
2022/10/11 04:07:20;;;;;;;6.20;1.25;;;;;;;7.75;100.00;102150.31;6249470;28;20045;-76
2022/10/11 04:10:21;;;;;;;3.67;1.38;;;;;;;7.72;100.00;102156.50;6248747;28;20053;-76
2022/10/11 04:13:22;;;;;;;6.90;1.38;;;;;;;7.73;100.00;102158.22;6249035;28;20072;-76
2022/10/11 04:16:24;;;;;;;4.38;1.35;;;;;;;7.68;100.00;102161.81;6248447;28;20417;-76
2022/10/11 04:19:27;;;;;;;8.50;1.55;;;;;;;7.63;100.00;102168.00;6249252;28;20049;-76
2022/10/11 04:22:28;;;;;;;2.15;1.20;;;;;;;7.61;100.00;102169.75;6248757;28;20049;-76
2022/10/11 04:25:30;;;;;;;5.93;1.60;;;;;;;7.59;100.00;102171.56;6248404;28;20425;-76
2022/10/11 04:28:31;;;;;;;4.85;1.50;;;;;;;7.62;100.00;102171.47;6248850;28;20060;-76
2022/10/11 04:31:33;;;;;;;5.20;1.40;;;;;;;7.61;100.00;102161.91;6248511;28;20060;-76
2022/10/11 04:34:36;;;;;;;10.48;2.50;;;;;;;7.62;100.00;102170.63;6248145;28;20068;-76
2022/10/11 04:37:37;;;;;;;3.67;1.38;;;;;;;7.62;100.00;102171.47;6248607;28;20049;-76
2022/10/11 04:40:38;;;;;;;2.60;1.23;;;;;;;7.63;100.00;102183.69;6248310;28;20053;-76
2022/10/11 04:43:40;;;;;;;4.68;1.73;;;;;;;7.57;100.00;102177.69;6248563;28;20052;-76
2022/10/11 04:46:42;;;;;;;4.07;1.60;;;;;;;7.49;100.00;102187.41;6247653;28;20053;-76
2022/10/11 04:49:44;;;;;;;6.70;1.33;;;;;;;7.43;100.00;102188.38;6248224;28;20053;-75
2022/10/11 04:52:46;;;;;;;7.93;1.77;;;;;;;7.40;100.00;102182.34;6248080;28;20535;-76
2022/10/11 04:55:56;;;;;;;7.72;1.77;;;;;;;7.42;100.00;102186.69;6247985;28;20053;-76
2022/10/11 04:58:57;;;;;;;6.03;1.58;;;;;;;7.41;100.00;102186.72;6248440;28;20050;-76
2022/10/11 05:01:59;;;;;;;4.80;2.08;;;;;;;7.41;100.00;102192.81;6247748;28;20060;-76
2022/10/11 05:05:02;;;;;;;5.47;2.08;;;;;;;7.43;100.00;102198.00;6247549;28;20046;-76
2022/10/11 05:08:04;;;;;;;6.78;2.42;;;;;;;7.41;100.00;102199.78;6247998;28;20053;-76
2022/10/11 05:11:08;;;;;;;3.00;1.30;;;;;;;7.39;100.00;102199.78;6247449;28;20543;-76
2022/10/11 05:14:09;;;;;;;5.75;2.25;;;;;;;7.34;100.00;102201.63;6247278;28;20045;-76
2022/10/11 05:17:10;;;;;;;2.45;1.42;;;;;;;7.38;100.00;102205.91;6247701;28;20060;-76
2022/10/11 05:20:13;;;;;;;8.65;2.10;;;;;;;7.38;100.00;102208.53;6262787;28;20435;-76
2022/10/11 05:23:15;;;;;;;3.45;1.88;;;;;;;7.38;100.00;102213.75;6272206;28;20493;-76
2022/10/11 05:26:18;;;;;;;6.60;2.38;;;;;;;7.29;100.00;102216.53;6271769;28;20416;-76
2022/10/11 05:29:19;;;;;;;8.98;2.00;;;;;;;7.24;100.00;102219.22;6270086;28;20060;-77
2022/10/11 05:32:21;;;;;;;3.78;1.48;;;;;;;7.29;100.00;102225.22;6270384;28;20417;-77
2022/10/11 05:35:23;;;;;;;11.43;2.38;;;;;;;7.28;100.00;102230.50;6271875;28;20045;-82
2022/10/11 05:38:25;;;;;;;7.65;1.67;;;;;;;7.25;100.00;102226.16;6271622;28;20059;-76
2022/10/11 05:41:27;;;;;;;7.10;1.83;;;;;;;7.24;100.00;102228.81;6271685;28;20053;-76
2022/10/11 05:44:29;;;;;;;3.50;1.80;;;;;;;7.21;100.00;102237.56;6271081;28;20052;-76
2022/10/11 05:47:30;;;;;;;3.10;1.83;;;;;;;7.16;100.00;102247.22;6271625;28;20420;-76
2022/10/11 05:50:34;;;;;;;6.78;1.80;;;;;;;7.19;100.00;102247.19;6271953;28;20068;-76
2022/10/11 05:53:35;;;;;;;9.60;1.65;;;;;;;7.20;100.00;102248.91;6271969;28;20044;-76
2022/10/11 05:56:37;;;;;;;4.93;1.85;;;;;;;7.23;100.00;102251.50;6270949;28;20460;-76
2022/10/11 05:59:38;;;;;;;6.10;2.17;;;;;;;7.23;100.00;102259.34;6270573;28;20044;-76
2022/10/11 06:02:40;;;;;;;5.45;1.75;;;;;;;7.23;100.00;102256.72;6271455;28;20053;-76
2022/10/11 06:05:43;;;;;;;4.70;1.88;;;;;;;7.23;100.00;102261.94;6271136;28;20052;-76
2022/10/11 06:08:45;;;;;;;9.82;2.92;;;;;;;7.20;100.00;102261.97;6271280;28;20048;-76
2022/10/11 06:11:47;;;;;;;10.93;1.90;;;;;;;7.10;100.00;102269.09;6271181;28;20048;-76
2022/10/11 06:14:48;;;;;;;6.32;2.38;;;;;;;7.11;100.00;102270.81;6271020;28;20056;-76
2022/10/11 06:17:50;;;;;;;6.93;1.48;;;;;;;7.06;100.00;102263.94;6271245;28;20049;-76
2022/10/11 06:20:52;;;;;;;6.63;1.70;;;;;;;7.07;100.00;102269.13;6271008;28;20088;-76
2022/10/11 06:23:54;;;;;;;5.88;1.63;;;;;;;7.05;100.00;102276.16;6270621;28;20559;-76
2022/10/11 06:26:55;;;;;;;4.75;2.03;;;;;;;7.03;100.00;102270.06;6271147;28;20045;-75
2022/10/11 06:29:57;;;;;;;1.80;1.25;;;;;;;7.08;100.00;102276.09;6270717;28;20049;-76
2022/10/11 06:32:58;;;;;;;2.53;1.50;;;;;;;7.12;100.00;102282.13;6271286;28;20052;-76
2022/10/11 06:36:03;;;;;;;8.13;1.98;;;;;;;7.20;100.00;102282.03;6270533;28;20053;-76
2022/10/11 06:39:04;;;;;;;3.17;1.70;;;;;;;7.21;100.00;102282.00;6271165;28;20048;-75
2022/10/11 06:42:05;;;;;;;4.00;1.95;;;;;;;7.17;100.00;102290.78;6271056;28;20052;-76
2022/10/11 06:45:08;;;;;;;4.47;2.00;;;;;;;7.16;100.00;102296.03;6270775;28;20041;-75
2022/10/11 06:48:09;;;;;;;8.50;2.10;;;;;;;7.26;100.00;102303.72;6271601;28;20053;-75
2022/10/11 06:51:13;;;;;;;8.45;2.17;;;;;;;7.32;100.00;102302.78;6270705;28;20120;-76
2022/10/11 06:54:15;;;;;;;8.35;2.05;;;;;;;7.40;100.00;102306.13;6270749;28;20393;-76
2022/10/11 06:57:16;;;;;;;9.02;2.58;;;;;;;7.42;100.00;102309.59;6271171;28;20049;-76
2022/10/11 07:00:18;;;;;;;9.05;2.38;;;;;;;7.45;100.00;102317.41;6270934;28;20160;-75
2022/10/11 07:03:19;;;;;;;5.60;1.98;;;;;;;7.48;100.00;102312.09;6271016;28;20075;-76
2022/10/11 07:06:24;;;;;;;5.80;2.03;;;;;;;7.51;100.00;102319.91;6270474;28;20056;-75
2022/10/11 07:09:26;;;;;;;11.80;1.98;;;;;;;7.51;100.00;102324.28;6272075;28;20053;-76
2022/10/11 07:12:27;;;;;;;7.05;1.98;;;;;;;7.47;100.00;102328.69;6275092;28;20045;-76
2022/10/11 07:15:29;;;;;;;5.10;1.80;;;;;;;7.55;100.00;102333.81;6274916;28;20075;-76
2022/10/11 07:18:31;;;;;;;4.70;1.50;;;;;;;7.59;100.00;102335.50;6275703;28;20052;-74
2022/10/11 07:21:35;;;;;;;6.07;1.50;;;;;;;7.56;100.00;102332.94;6275591;28;20053;-75
2022/10/11 07:24:36;;;;;;;9.10;2.15;;;;;;;7.58;100.00;102345.09;6274949;28;20049;-75
2022/10/11 07:27:38;;;;;;;10.20;1.80;;;;;;;7.60;100.00;102339.84;6260640;28;20041;-75
2022/10/11 07:30:40;;;;;;;4.25;1.60;;;;;;;7.70;100.00;102343.19;6271775;28;20052;-75
2022/10/11 07:33:41;;;;;;;14.38;1.75;;;;;;;7.74;100.00;102347.47;6274057;28;20067;-74
2022/10/11 07:36:44;;;;;;;6.30;1.48;;;;;;;7.79;100.00;102343.03;6255662;28;20067;-76
2022/10/11 07:39:45;;;;;;;4.68;1.80;;;;;;;7.86;100.00;102349.91;6274544;28;20048;-74
2022/10/11 07:42:47;;;;;;;5.63;1.85;;;;;;;7.93;100.00;102358.50;6274135;28;20041;-75
2022/10/11 07:45:53;;;;;;;5.93;1.83;;;;;;;7.98;100.00;102356.69;6272536;28;20045;-76
2022/10/11 07:48:54;;;;;;;3.28;1.63;;;;;;;8.07;100.00;102353.91;6274749;28;20508;-75
2022/10/11 07:51:57;;;;;;;8.70;1.65;;;;;;;8.03;100.00;102362.69;6274815;28;20045;-76
2022/10/11 07:54:58;;;;;;;14.70;2.80;;;;;;;8.05;100.00;102356.56;6273763;28;20045;-75
2022/10/11 07:58:00;;;;;;;5.13;2.33;;;;;;;8.13;100.00;102359.06;6274473;28;20053;-76
2022/10/11 08:01:01;;;;;;;3.75;1.60;;;;;;;8.18;100.00;102357.22;6258928;28;20060;-75
2022/10/11 08:04:03;;;;;;;2.53;1.20;;;;;;;8.12;100.00;102359.94;6248876;28;20425;-75
2022/10/11 08:07:06;;;;;;;5.07;1.20;;;;;;;8.14;100.00;102366.88;6249169;28;20402;-75
2022/10/11 08:10:09;;;;;;;4.30;1.95;;;;;;;8.19;100.00;102358.94;6248982;28;20054;-75
2022/10/11 08:13:10;;;;;;;4.22;1.52;;;;;;;8.21;100.00;102356.28;6274125;28;20053;-75
2022/10/11 08:16:13;;;;;;;5.85;2.13;;;;;;;8.21;100.00;102359.75;6273309;28;20055;-75
2022/10/11 08:19:14;;;;;;;2.63;1.70;;;;;;;8.25;100.00;102363.19;6273617;28;20142;-75
2022/10/11 08:22:17;;;;;;;6.50;1.92;;;;;;;8.32;100.00;102355.22;6272026;28;20053;-75
2022/10/11 08:25:19;;;;;;;3.90;1.85;;;;;;;8.43;100.00;102370.75;6273346;28;20049;-75
2022/10/11 08:28:20;;;;;;;5.35;1.55;;;;;;;8.47;100.00;102364.56;6273397;28;20538;-76
2022/10/11 08:31:22;;;;;;;2.00;1.38;;;;;;;8.54;100.00;102366.19;6273082;28;20048;-76
2022/10/11 08:34:23;;;;;;;3.00;1.50;;;;;;;8.64;100.00;102377.38;6272702;28;20045;-76
2022/10/11 08:37:27;;;;;;;9.25;2.60;;;;;;;8.74;100.00;102378.91;6273342;28;20048;-76
2022/10/11 08:40:28;;;;;;;7.95;1.50;;;;;;;8.83;100.00;102375.25;6273004;28;20085;-75
2022/10/11 08:43:42;;;;;;;6.43;1.73;;;;;;;8.89;100.00;102382.97;6273083;28;20060;-75
2022/10/11 08:46:48;;;;;;;4.15;1.42;;;;;;;8.93;100.00;102381.16;6272704;28;20052;-74
2022/10/11 08:49:50;;;;;;;1.80;1.25;;;;;;;9.00;100.00;102383.66;6272511;28;20048;-75
2022/10/11 08:52:57;;;;;;;8.27;1.50;;;;;;;9.08;100.00;102383.47;6273097;28;20416;-77
2022/10/11 08:56:00;;;;;;;4.93;1.80;;;;;;;9.11;100.00;102388.66;6272161;28;20041;-76
2022/10/11 08:59:06;;;;;;;9.07;1.98;;;;;;;9.18;100.00;102385.03;6273140;28;20098;-76
2022/10/11 09:02:24;;;;;;;3.53;1.52;;;;;;;9.28;100.00;102394.41;6272544;28;20044;-77
2022/10/11 09:05:30;;;;;;;9.18;1.30;;;;;;;9.35;100.00;102392.50;6272511;28;20045;-75
2022/10/11 09:08:44;;;;;;;7.28;1.80;;;;;;;9.43;100.00;102393.22;6272679;28;20056;-75
2022/10/11 09:11:57;;;;;;;7.13;1.65;;;;;;;9.53;100.00;102386.00;6272320;28;20049;-75
2022/10/11 09:15:13;;;;;;;7.28;1.52;;;;;;;9.65;100.00;102396.22;6271914;28;20045;-75
2022/10/11 09:18:34;;;;;;;4.95;1.63;;;;;;;9.74;100.00;102397.78;6272759;28;20060;-75
2022/10/11 09:21:45;;;;;;;1.83;1.20;;;;;;;9.83;100.00;102397.56;6270944;28;20190;-74
2022/10/11 09:25:08;;;;;;;7.47;1.63;;;;;;;9.93;100.00;102393.81;6271715;28;20044;-74
2022/10/11 09:28:24;;;;;;;5.10;1.40;;;;;;;9.99;100.00;102392.78;6271469;28;20436;-75
2022/10/11 09:31:27;;;;;;;8.93;1.10;;;;;;;10.08;100.00;102392.56;6271621;28;20140;-75
2022/10/11 09:34:32;;;;;;;11.85;1.63;;;;;;;10.14;100.00;102393.28;6261900;28;20055;-73
2022/10/11 09:37:38;;;;;;;4.53;1.25;;;;;;;10.23;100.00;102397.44;6247531;28;20051;-73
2022/10/11 09:40:50;;;;;;;6.22;2.00;;;;;;;10.34;100.00;102394.56;6246982;28;20045;-73
2022/10/11 09:43:52;;;;;;;3.58;1.50;;;;;;;10.41;100.00;102398.78;6246430;28;20076;-72
2022/10/11 09:46:54;;;;;;;5.72;1.30;;;;;;;10.57;100.00;102394.81;6269294;28;20408;-73
2022/10/11 09:49:58;;;;;;;4.22;1.10;;;;;;;10.60;100.00;102404.41;6271109;28;20056;-72
2022/10/11 09:53:03;;;;;;;3.63;0.80;;;;;;;10.65;100.00;102398.09;6271623;28;20053;-72
2022/10/11 09:56:06;;;;;;;11.38;1.52;;;;;;;10.72;100.00;102392.66;6270977;28;20081;-73
2022/10/11 09:59:19;;;;;;;3.65;0.95;;;;;;;10.85;100.00;102401.94;6271701;28;20493;-72
2022/10/11 10:02:22;;;;;;;2.58;1.10;;;;;;;10.91;100.00;102399.16;6270998;28;20049;-72
2022/10/11 10:05:25;;;;;;;7.85;1.42;;;;;;;11.04;100.00;102399.69;6271053;28;20052;-72
2022/10/11 10:08:27;;;;;;;2.90;1.23;;;;;;;11.07;100.00;102394.31;6271205;28;20072;-72
2022/10/11 10:11:36;;;;;;;3.65;0.80;;;;;;;11.14;100.00;102396.72;6271115;28;20049;-73
2022/10/11 10:14:38;;;;;;;10.95;1.77;;;;;;;11.20;100.00;102394.81;6270870;28;20041;-72
2022/10/11 10:17:48;;;;;;;3.10;0.98;;;;;;;11.24;100.00;102397.31;6271399;28;20052;-72
2022/10/11 10:20:55;;;;;;;4.90;0.73;;;;;;;11.30;100.00;102397.13;6270939;28;20068;-73
2022/10/11 10:23:58;;;;;;;5.35;1.13;;;;;;;11.38;100.00;102407.44;6270883;28;20132;-73
2022/10/11 10:27:16;;;;;;;3.45;0.63;;;;;;;11.41;100.00;102400.31;6271376;28;20045;-73
2022/10/11 10:30:19;;;;;;;8.40;1.27;;;;;;;11.42;100.00;102399.41;6270879;28;20055;-73
2022/10/11 10:33:23;;;;;;;5.93;0.80;;;;;;;11.55;99.37;102406.94;6271061;28;20492;-72
2022/10/11 10:36:29;;;;;;;6.45;0.88;;;;;;;11.63;98.65;102402.28;6246019;28;20045;-73
2022/10/11 10:39:37;;;;;;;3.75;0.75;;;;;;;11.62;99.97;102409.31;6246669;28;20057;-73
2022/10/11 10:42:40;;;;;;;4.97;0.80;;;;;;;11.71;98.83;102402.03;6246431;28;20053;-73
2022/10/11 10:46:05;;;;;;;3.53;1.02;;;;;;;11.85;97.17;102408.63;6260919;28;20049;-73
2022/10/11 10:49:12;;;;;;;2.35;0.85;;;;;;;11.99;98.92;102412.56;6276039;28;20045;-73
2022/10/11 10:52:41;;;;;;;2.38;0.65;;;;;;;12.12;100.00;102409.50;6275481;28;20049;-72
2022/10/11 10:55:45;;;;;;;4.40;0.50;;;;;;;12.29;91.11;102408.94;6275232;28;20045;-74
2022/10/11 10:59:03;;;;;;;8.15;2.03;;;;;;;12.43;86.70;102408.47;6275606;28;20061;-72
2022/10/11 11:02:13;;;;;;;5.93;2.05;;;;;;;12.49;86.43;102410.03;6275188;28;20420;-73
2022/10/11 11:05:23;;;;;;;4.32;0.63;;;;;;;12.51;88.17;102395.88;6274408;28;20047;-74
2022/10/11 11:08:46;;;;;;;7.20;1.00;;;;;;;12.63;85.11;102399.88;6273292;28;20531;-73
2022/10/11 11:11:59;;;;;;;7.63;1.08;;;;;;;12.70;83.94;102401.38;6254918;28;20148;-76
2022/10/11 11:15:04;;;;;;;9.02;1.23;;;;;;;12.82;82.47;102400.94;6274114;28;20239;-74
2022/10/11 11:18:21;;;;;;;10.25;1.05;;;;;;;12.94;85.97;102395.22;6270371;28;20436;-74
2022/10/11 11:21:32;;;;;;;5.03;1.25;;;;;;;13.07;81.29;102400.03;6275200;28;20063;-76
2022/10/11 11:24:43;;;;;;;4.30;1.63;;;;;;;13.12;80.45;102400.72;6275202;28;20049;-76
2022/10/11 11:27:59;;;;;;;12.75;1.83;;;;;;;13.29;78.09;102397.47;6275367;28;20049;-76
2022/10/11 11:31:15;;;;;;;6.63;0.80;;;;;;;13.50;80.21;102391.38;6274972;28;20428;-75
2022/10/11 11:34:22;;;;;;;4.78;1.45;;;;;;;13.85;76.47;102381.16;6276934;28;20059;-76
2022/10/11 11:37:30;;;;;;;2.13;0.50;;;;;;;13.86;74.87;102390.81;6275459;28;20045;-76
2022/10/11 11:40:37;;;;;;;4.57;1.80;;;;;;;13.82;74.86;102386.56;6274449;28;20060;-76
2022/10/11 11:43:49;;;;;;;2.40;0.55;;;;;;;13.98;77.00;102378.88;6275160;28;20087;-76
2022/10/11 11:46:56;;;;;;;3.40;0.60;;;;;;;14.15;77.83;102382.53;6253470;28;20057;-77
2022/10/11 11:49:59;;;;;;;2.13;0.57;;;;;;;14.10;72.00;102376.56;6255922;28;20060;-76
2022/10/11 11:53:06;;;;;;;1.70;0.60;;;;;;;14.29;74.52;102381.09;6274578;28;20055;-76
2022/10/11 11:56:16;;;;;;;1.83;0.63;;;;;;;14.41;72.00;102377.94;6273679;28;20496;-76
2022/10/11 11:59:26;;;;;;;3.72;0.80;;;;;;;14.63;73.15;102385.81;6274763;28;20049;-76
2022/10/11 12:02:40;;;;;;;3.55;0.57;;;;;;;14.59;72.37;102377.16;6274041;28;20060;-76
2022/10/11 12:06:20;;;;;;;9.63;1.25;;;;;;;14.63;72.36;102381.38;6273824;28;20505;-75
2022/10/11 12:09:23;;;;;;;5.68;1.25;;;;;;;14.76;69.40;102379.06;6274200;28;20397;-76
2022/10/11 12:12:28;;;;;;;4.15;0.70;;;;;;;14.78;70.59;102379.84;6273921;28;20072;-77
2022/10/11 12:15:31;;;;;;;2.88;0.77;;;;;;;14.88;69.45;102367.91;6273863;28;20049;-76
2022/10/11 12:18:35;;;;;;;10.07;0.85;;;;;;;14.68;70.18;102376.75;6274365;28;20048;-74
2022/10/11 12:21:38;;;;;;;5.68;0.93;;;;;;;14.72;69.63;102361.59;6273634;28;20057;-75
2022/10/11 12:24:54;;;;;;;4.43;0.60;;;;;;;14.65;69.33;102368.06;6272895;28;20045;-75
2022/10/11 12:27:57;;;;;;;2.65;0.60;;;;;;;15.03;71.89;102374.28;6274617;28;20055;-77
2022/10/11 12:31:04;;;;;;;0.43;0.30;;;;;;;14.96;68.95;102373.72;6273238;28;20428;-76
2022/10/11 12:34:37;;;;;;;2.97;0.80;;;;;;;14.84;69.02;102365.47;6279552;28;20059;-77
2022/10/11 12:37:50;;;;;;;1.65;0.90;;;;;;;15.24;71.32;102367.13;6221413;28;20042;-77
2022/10/11 12:40:55;;;;;;;4.38;1.05;;;;;;;15.46;69.47;102367.84;6298123;28;20052;-75
2022/10/11 12:44:13;;;;;;;9.20;1.10;;;;;;;15.56;68.72;102364.75;6297085;28;20240;-75
2022/10/11 12:50:21;;;;;;;4.43;0.55;;;;;;;15.47;65.53;102358.09;6271037;28;20044;-75
2022/10/11 12:53:37;;;;;;;2.20;0.63;;;;;;;15.40;65.13;102357.53;6273258;28;20049;-75
2022/10/11 12:56:48;;;;;;;5.43;1.15;;;;;;;15.13;67.13;102350.91;6247743;28;20511;-75
2022/10/11 12:59:49;;;;;;;3.55;0.52;;;;;;;15.15;64.61;102349.88;6247710;28;20049;-76
2022/10/11 13:02:51;;;;;;;3.22;0.70;;;;;;;15.17;64.42;102345.38;6249665;28;20061;-77
2022/10/11 13:05:55;;;;;;;4.13;1.15;;;;;;;15.06;67.85;102350.31;6269530;28;20052;-77
2022/10/11 13:09:02;;;;;;;3.53;1.25;;;;;;;15.31;65.01;102347.38;6273892;28;20091;-76
2022/10/11 13:12:08;;;;;;;4.25;1.30;;;;;;;15.69;66.58;102352.66;6272769;28;20045;-74
2022/10/11 13:15:15;;;;;;;2.70;0.47;;;;;;;15.87;64.58;102354.38;6271860;28;20060;-76
2022/10/11 13:18:17;;;;;;;5.45;0.63;;;;;;;15.92;64.52;102349.69;6272313;28;20055;-74
2022/10/11 13:21:26;;;;;;;3.03;0.93;;;;;;;16.23;63.17;102342.84;6272185;28;20056;-74
2022/10/11 13:24:36;;;;;;;4.75;0.88;;;;;;;16.27;63.24;102359.47;6271783;28;20060;-75
2022/10/11 13:27:39;;;;;;;3.80;1.00;;;;;;;15.76;63.88;102345.22;6272345;28;20511;-75
2022/10/11 13:30:46;;;;;;;4.78;1.23;;;;;;;15.47;65.73;102353.66;6271682;28;20527;-75
2022/10/11 13:33:47;;;;;;;5.38;1.00;;;;;;;15.62;66.10;102353.84;6275197;28;20056;-75
2022/10/11 13:36:55;;;;;;;3.50;0.82;;;;;;;15.33;66.46;102350.81;6297046;28;20127;-74
2022/10/11 13:39:57;;;;;;;3.63;0.88;;;;;;;14.90;67.87;102347.53;6296596;28;20057;-74
2022/10/11 13:43:00;;;;;;;3.53;1.17;;;;;;;15.17;67.87;102345.38;6296711;28;20049;-74
2022/10/11 13:46:03;;;;;;;13.45;1.02;;;;;;;15.40;66.19;102339.00;6281425;28;20041;-75
2022/10/11 13:49:24;;;;;;;4.38;0.63;;;;;;;15.99;63.58;102344.97;6271853;28;20130;-74
2022/10/11 13:52:26;;;;;;;5.78;1.25;;;;;;;16.18;62.54;102342.22;6247596;28;20053;-74
2022/10/11 13:55:31;;;;;;;6.57;1.23;;;;;;;16.36;61.94;102340.41;6246248;28;20421;-73
2022/10/11 13:58:39;;;;;;;6.70;1.10;;;;;;;16.12;60.09;102342.53;6260054;28;20048;-74
2022/10/11 14:01:45;;;;;;;7.75;0.68;;;;;;;16.13;62.33;102345.13;6271127;28;20072;-74
2022/10/11 14:04:47;;;;;;;6.03;1.10;;;;;;;16.27;62.84;102338.25;6271325;28;20071;-72
2022/10/11 14:07:49;;;;;;;2.42;0.63;;;;;;;15.97;62.64;102333.56;6271655;28;20107;-73
2022/10/11 14:10:51;;;;;;;3.78;0.95;;;;;;;16.01;63.55;102336.94;6263822;28;20060;-73
2022/10/11 14:13:54;;;;;;;4.50;0.82;;;;;;;15.84;63.84;102329.81;6268195;28;20045;-74
2022/10/11 14:16:56;;;;;;;4.05;0.73;;;;;;;15.80;63.44;102330.91;6270975;28;20049;-74
2022/10/11 14:20:08;;;;;;;4.80;1.00;;;;;;;15.66;62.65;102331.59;6270922;28;20048;-74
2022/10/11 14:23:12;;;;;;;7.03;1.08;;;;;;;15.60;63.81;102329.22;6270060;28;20049;-75